createdAt,value
2022-11-27T00:01:36.676Z,6.60
2022-11-27T00:04:05.082Z,6.60
2022-11-27T00:06:32.626Z,6.70
2022-11-27T00:09:05.679Z,6.60
2022-11-27T00:11:33.399Z,6.60
2022-11-27T00:14:00.945Z,6.60
2022-11-27T00:16:28.883Z,6.60
2022-11-27T00:18:55.936Z,6.50
2022-11-27T00:21:27.906Z,6.50
2022-11-27T00:23:57.095Z,6.50
2022-11-27T00:26:24.437Z,6.50
2022-11-27T00:28:52.025Z,6.50
2022-11-27T00:31:29.576Z,6.40
2022-11-27T00:34:02.648Z,6.40
2022-11-27T00:36:34.663Z,6.50
2022-11-27T00:39:02.086Z,6.40
2022-11-27T00:41:30.931Z,6.40
2022-11-27T00:43:58.567Z,7.00
2022-11-27T00:46:29.917Z,6.40
2022-11-27T00:48:59.270Z,6.50
2022-11-27T00:51:27.356Z,6.50
2022-11-27T00:53:55.057Z,6.50
2022-11-27T00:56:35.180Z,6.50
2022-11-27T00:59:02.948Z,7.20
2022-11-27T01:01:40.976Z,6.50
2022-11-27T01:04:12.674Z,6.50
2022-11-27T01:06:40.232Z,6.50
2022-11-27T01:09:07.956Z,6.50
2022-11-27T01:11:35.960Z,6.50
2022-11-27T01:14:09.068Z,6.50
2022-11-27T01:16:42.657Z,6.90
2022-11-27T01:22:41.057Z,7.00
2022-11-27T01:25:08.850Z,6.60
2022-11-27T01:27:35.587Z,6.60
2022-11-27T01:30:02.388Z,6.70
2022-11-27T01:32:29.117Z,6.60
2022-11-27T01:34:55.907Z,6.60
2022-11-27T01:37:22.711Z,6.70
2022-11-27T01:39:49.528Z,6.60
2022-11-27T01:42:16.272Z,6.60
2022-11-27T01:44:51.309Z,6.70
2022-11-27T01:47:39.822Z,7.00
2022-11-27T01:50:23.457Z,6.70
2022-11-27T01:52:55.903Z,6.70
2022-11-27T01:55:47.248Z,6.70
2022-11-27T01:58:28.346Z,6.70
2022-11-27T02:00:55.499Z,7.20
2022-11-27T02:03:23.441Z,7.20
2022-11-27T02:05:50.298Z,6.70
2022-11-27T02:08:18.417Z,6.60
2022-11-27T02:11:10.919Z,6.70
2022-11-27T02:13:48.498Z,6.70
2022-11-27T02:16:35.957Z,6.70
2022-11-27T02:19:51.560Z,6.70
2022-11-27T02:22:51.415Z,6.70
2022-11-27T02:26:02.020Z,6.70
2022-11-27T02:29:03.556Z,6.70
2022-11-27T02:32:04.029Z,6.70
2022-11-27T02:34:45.819Z,6.70
2022-11-27T02:37:39.379Z,6.70
2022-11-27T02:40:38.379Z,6.70
2022-11-27T02:43:32.587Z,6.70
2022-11-27T02:46:02.612Z,6.70
2022-11-27T02:48:53.558Z,6.70
2022-11-27T02:51:28.939Z,6.70
2022-11-27T02:54:02.711Z,6.70
2022-11-27T02:56:34.618Z,6.70
2022-11-27T02:59:07.908Z,6.70
2022-11-27T03:01:42.689Z,6.70
2022-11-27T03:04:18.154Z,6.70
2022-11-27T03:06:53.996Z,6.70
2022-11-27T03:09:39.435Z,6.80
2022-11-27T03:12:09.953Z,6.80
2022-11-27T03:14:40.908Z,6.80
2022-11-27T03:17:41.693Z,6.90
2022-11-27T03:20:24.202Z,6.90
2022-11-27T03:22:54.527Z,6.90
2022-11-27T03:25:23.013Z,6.90
2022-11-27T03:27:58.085Z,7.00
2022-11-27T03:30:25.016Z,7.10
2022-11-27T03:32:51.817Z,7.00
2022-11-27T03:35:24.896Z,7.00
2022-11-27T03:37:53.539Z,7.00
2022-11-27T03:40:27.672Z,7.00
2022-11-27T03:43:31.514Z,7.00
2022-11-27T03:46:05.815Z,7.00
2022-11-27T03:48:48.024Z,7.00
2022-11-27T03:51:30.045Z,7.00
2022-11-27T03:54:10.952Z,7.10
2022-11-27T03:56:55.908Z,7.10
2022-11-27T03:59:46.023Z,7.10
2022-11-27T04:02:15.202Z,7.10
2022-11-27T04:04:42.209Z,7.20
2022-11-27T04:07:17.596Z,7.20
2022-11-27T04:09:45.013Z,7.30
2022-11-27T04:12:15.004Z,7.30
2022-11-27T04:14:42.171Z,7.30
2022-11-27T04:17:11.903Z,7.30
2022-11-27T04:19:39.012Z,7.40
2022-11-27T04:22:07.203Z,7.40
2022-11-27T04:24:34.192Z,7.60
2022-11-27T04:27:00.986Z,7.90
2022-11-27T04:29:27.843Z,7.50
2022-11-27T04:31:55.169Z,7.60
2022-11-27T04:34:22.151Z,7.20
2022-11-27T04:36:49.235Z,7.70
2022-11-27T04:39:16.569Z,7.70
2022-11-27T04:41:43.367Z,7.70
2022-11-27T04:44:14.312Z,8.30
2022-11-27T04:46:41.326Z,8.20
2022-11-27T04:49:16.142Z,8.50
2022-11-27T04:51:45.880Z,8.00
2022-11-27T04:54:13.292Z,7.90
2022-11-27T04:56:40.145Z,7.90
2022-11-27T04:59:06.958Z,7.60
2022-11-27T05:01:33.836Z,8.00
2022-11-27T05:04:00.689Z,8.00
2022-11-27T05:06:27.574Z,8.00
2022-11-27T05:09:01.869Z,8.00
2022-11-27T05:11:31.195Z,8.10
2022-11-27T05:14:18.363Z,8.10
2022-11-27T05:16:55.271Z,8.10
2022-11-27T05:19:25.035Z,8.10
2022-11-27T05:21:52.809Z,8.10
2022-11-27T05:24:23.634Z,8.10
2022-11-27T05:26:50.715Z,8.50
2022-11-27T05:29:18.615Z,8.20
2022-11-27T05:31:45.929Z,8.10
2022-11-27T05:34:14.173Z,8.20
2022-11-27T05:36:41.858Z,8.20
2022-11-27T05:39:11.350Z,8.60
2022-11-27T05:41:41.411Z,8.20
2022-11-27T05:44:19.137Z,8.40
2022-11-27T05:46:46.158Z,8.20
2022-11-27T05:49:15.963Z,8.50
2022-11-27T05:51:50.497Z,8.70
2022-11-27T05:54:18.679Z,8.60
2022-11-27T05:56:45.874Z,8.70
2022-11-27T05:59:12.970Z,8.20
2022-11-27T06:01:40.131Z,8.60
2022-11-27T06:04:07.175Z,8.60
2022-11-27T06:06:34.222Z,8.20
2022-11-27T06:09:01.305Z,8.60
2022-11-27T06:11:28.260Z,8.70
2022-11-27T06:13:55.065Z,8.70
2022-11-27T06:16:24.301Z,8.30
2022-11-27T06:18:54.460Z,8.30
2022-11-27T06:21:24.120Z,8.30
2022-11-27T06:23:55.929Z,8.30
2022-11-27T06:26:32.453Z,8.30
2022-11-27T06:29:01.693Z,8.30
2022-11-27T06:31:33.460Z,8.30
2022-11-27T06:34:02.335Z,8.30
2022-11-27T06:36:35.888Z,8.40
2022-11-27T06:39:06.153Z,8.40
2022-11-27T06:41:33.381Z,8.40
2022-11-27T06:44:01.519Z,8.40
2022-11-27T06:46:30.001Z,8.40
2022-11-27T06:48:58.635Z,8.30
2022-11-27T06:51:35.625Z,8.40
2022-11-27T06:54:02.936Z,8.80
2022-11-27T07:09:43.332Z,8.30
2022-11-27T07:12:10.345Z,8.90
2022-11-27T07:14:37.314Z,8.60
2022-11-27T07:17:04.357Z,8.50
2022-11-27T07:19:31.148Z,9.20
2022-11-27T07:21:57.903Z,8.60
2022-11-27T07:24:24.771Z,8.80
2022-11-27T07:26:51.523Z,8.70
2022-11-27T07:29:18.248Z,8.70
2022-11-27T07:31:45.087Z,8.70
2022-11-27T07:34:15.962Z,8.80
2022-11-27T07:36:46.706Z,8.80
2022-11-27T07:39:13.452Z,8.80
2022-11-27T07:41:40.197Z,8.80
2022-11-27T07:44:06.923Z,8.80
2022-11-27T07:46:33.667Z,8.80
2022-11-27T07:49:00.827Z,8.90
2022-11-27T07:51:28.544Z,9.00
2022-11-27T07:53:55.332Z,9.00
2022-11-27T07:56:22.260Z,9.00
2022-11-27T07:59:00.191Z,9.10
2022-11-27T08:01:28.339Z,9.10
2022-11-27T08:04:03.147Z,8.90
2022-11-27T08:06:30.172Z,9.20
2022-11-27T08:09:02.215Z,9.60
2022-11-27T08:11:33.040Z,9.70
2022-11-27T08:14:06.707Z,9.50
2022-11-27T08:16:38.395Z,9.50
2022-11-27T08:19:05.278Z,10.10
2022-11-27T08:21:33.210Z,10.40
2022-11-27T08:24:00.133Z,10.30
2022-11-27T08:26:27.783Z,10.30
2022-11-27T08:28:56.518Z,10.10
2022-11-27T08:31:24.235Z,10.60
2022-11-27T08:33:54.315Z,10.90
2022-11-27T08:36:23.571Z,10.60
2022-11-27T08:42:43.679Z,10.80
2022-11-27T08:45:13.860Z,10.50
2022-11-27T08:47:43.341Z,10.50
2022-11-27T08:50:10.636Z,10.10
2022-11-27T08:52:49.799Z,10.60
2022-11-27T08:55:21.442Z,10.90
2022-11-27T08:57:48.364Z,10.50
2022-11-27T09:00:15.881Z,11.00
2022-11-27T09:02:42.655Z,10.60
2022-11-27T09:05:09.982Z,10.60
2022-11-27T09:07:36.912Z,10.30
2022-11-27T09:10:04.619Z,10.40
2022-11-27T09:12:46.274Z,10.70
2022-11-27T09:15:14.255Z,10.70
2022-11-27T09:17:55.476Z,11.10
2022-11-27T09:20:25.392Z,11.30
2022-11-27T09:22:54.941Z,10.80
2022-11-27T09:25:24.915Z,11.10
2022-11-27T09:27:51.865Z,11.20
2022-11-27T09:30:25.138Z,11.20
2022-11-27T09:32:53.123Z,10.70
2022-11-27T09:35:29.121Z,10.90
2022-11-27T09:37:56.039Z,10.90
2022-11-27T09:40:25.925Z,11.10
2022-11-27T09:43:09.878Z,11.40
2022-11-27T09:45:45.392Z,11.00
2022-11-27T09:48:20.545Z,11.00
2022-11-27T09:50:51.527Z,11.10
2022-11-27T09:53:42.199Z,11.00
2022-11-27T09:56:15.494Z,11.00
2022-11-27T09:58:49.197Z,11.00
2022-11-27T10:01:36.554Z,11.00
2022-11-27T10:04:12.367Z,10.90
2022-11-27T10:07:14.722Z,10.80
2022-11-27T10:10:15.001Z,10.80
2022-11-27T10:13:13.857Z,10.80
2022-11-27T10:16:07.502Z,10.70
2022-11-27T10:19:00.179Z,10.70
2022-11-27T10:21:58.431Z,10.70
2022-11-27T10:25:19.036Z,10.70
2022-11-27T10:28:33.450Z,10.80
2022-11-27T10:31:17.565Z,10.80
2022-11-27T10:33:56.432Z,10.80
2022-11-27T10:36:34.069Z,10.80
2022-11-27T10:39:04.266Z,10.80
2022-11-27T10:41:49.137Z,10.90
2022-11-27T10:44:33.403Z,11.30
2022-11-27T10:47:07.227Z,11.00
2022-11-27T10:49:39.285Z,11.00
2022-11-27T10:52:10.914Z,11.10
2022-11-27T10:54:39.571Z,11.20
2022-11-27T10:57:40.333Z,11.30
2022-11-27T11:00:23.896Z,11.50
2022-11-27T11:03:05.413Z,11.50
2022-11-27T11:05:56.976Z,11.60
2022-11-27T11:08:21.590Z,11.70
2022-11-27T11:11:04.617Z,11.80
2022-11-27T11:13:42.909Z,11.90
2022-11-27T11:16:14.903Z,12.00
2022-11-27T11:18:53.173Z,12.20
2022-11-27T11:21:32.162Z,12.30
2022-11-27T11:24:06.974Z,12.40
2022-11-27T11:26:44.494Z,12.50
2022-11-27T11:29:45.248Z,12.60
2022-11-27T11:32:23.373Z,12.60
2022-11-27T11:35:28.664Z,12.70
2022-11-27T11:37:57.446Z,12.80
2022-11-27T11:40:30.845Z,12.80
2022-11-27T11:43:27.377Z,12.90
2022-11-27T11:45:56.174Z,12.90
2022-11-27T11:48:26.428Z,13.00
2022-11-27T11:51:06.019Z,13.10
2022-11-27T11:53:42.722Z,13.10
2022-11-27T11:56:37.550Z,13.20
2022-11-27T11:59:49.921Z,13.20
2022-11-27T12:03:04.910Z,13.30
2022-11-27T12:06:18.885Z,13.40
2022-11-27T12:08:51.660Z,13.40
2022-11-27T12:11:44.342Z,13.50
2022-11-27T12:14:37.125Z,13.50
2022-11-27T12:17:46.631Z,13.50
2022-11-27T12:20:55.848Z,13.50
2022-11-27T12:23:37.593Z,13.50
2022-11-27T12:26:37.576Z,13.50
2022-11-27T12:29:29.883Z,13.50
2022-11-27T12:32:31.792Z,13.50
2022-11-27T12:35:22.923Z,13.50
2022-11-27T12:38:26.486Z,13.50
2022-11-27T12:41:25.666Z,13.50
2022-11-27T12:44:00.003Z,13.50
2022-11-27T12:46:52.887Z,13.40
2022-11-27T12:49:37.704Z,13.40
2022-11-27T12:52:25.615Z,13.30
2022-11-27T12:55:21.016Z,13.30
2022-11-27T12:58:14.939Z,13.20
2022-11-27T13:00:43.978Z,13.10
2022-11-27T13:03:29.180Z,13.00
2022-11-27T13:06:05.486Z,13.00
2022-11-27T13:09:03.431Z,12.90
2022-11-27T13:11:37.820Z,12.70
2022-11-27T13:14:22.266Z,12.70
2022-11-27T13:17:02.890Z,12.60
2022-11-27T13:19:49.494Z,12.50
2022-11-27T13:22:27.681Z,12.40
2022-11-27T13:24:56.620Z,12.40
2022-11-27T13:27:30.419Z,12.30
2022-11-27T13:30:07.784Z,12.30
2022-11-27T13:32:49.245Z,12.20
2022-11-27T13:35:38.704Z,12.20
2022-11-27T13:38:24.169Z,12.10
2022-11-27T13:40:55.866Z,12.10
2022-11-27T13:43:44.208Z,12.10
2022-11-27T13:46:28.828Z,12.00
2022-11-27T13:49:05.681Z,12.00
2022-11-27T13:51:39.835Z,11.90
2022-11-27T13:54:16.277Z,11.90
2022-11-27T13:56:43.419Z,11.90
2022-11-27T13:59:24.494Z,11.90
2022-11-27T14:02:05.172Z,11.80
2022-11-27T14:04:34.194Z,11.80
2022-11-27T14:07:11.710Z,11.70
2022-11-27T14:09:45.244Z,11.70
2022-11-27T14:12:27.144Z,11.70
2022-11-27T14:15:17.648Z,11.60
2022-11-27T14:17:48.566Z,11.50
2022-11-27T14:20:18.052Z,11.50
2022-11-27T14:23:11.291Z,11.40
2022-11-27T14:25:40.310Z,11.80
2022-11-27T14:28:21.505Z,11.50
2022-11-27T14:30:56.865Z,11.30
2022-11-27T14:33:31.006Z,11.20
2022-11-27T14:36:07.464Z,11.20
2022-11-27T14:38:35.599Z,11.10
2022-11-27T14:41:21.624Z,11.10
2022-11-27T14:43:49.128Z,11.00
2022-11-27T14:46:21.923Z,11.00
2022-11-27T14:48:57.743Z,11.00
2022-11-27T14:51:35.773Z,11.00
2022-11-27T14:54:34.992Z,10.90
2022-11-27T14:57:02.617Z,10.90
2022-11-27T14:59:29.446Z,10.80
2022-11-27T15:02:11.594Z,10.80
2022-11-27T15:04:44.203Z,10.80
2022-11-27T15:07:29.839Z,10.80
2022-11-27T15:09:59.693Z,10.80
2022-11-27T15:12:44.007Z,10.80
2022-11-27T15:15:27.425Z,10.80
2022-11-27T15:18:01.567Z,10.80
2022-11-27T15:20:40.819Z,10.80
2022-11-27T15:23:24.783Z,10.80
2022-11-27T15:26:17.839Z,10.80
2022-11-27T15:28:49.495Z,10.80
2022-11-27T15:31:23.924Z,10.80
2022-11-27T15:34:03.864Z,10.80
2022-11-27T15:36:43.076Z,10.80
2022-11-27T15:39:57.345Z,10.80
2022-11-27T15:42:26.253Z,10.70
2022-11-27T15:44:56.772Z,10.70
2022-11-27T15:47:32.253Z,10.70
2022-11-27T15:50:00.243Z,10.70
2022-11-27T15:52:28.047Z,10.60
2022-11-27T15:54:56.518Z,10.60
2022-11-27T15:57:24.306Z,10.60
2022-11-27T15:59:51.372Z,10.60
2022-11-27T16:02:18.645Z,10.60
2022-11-27T16:04:45.464Z,10.60
2022-11-27T16:07:12.303Z,10.60
2022-11-27T16:09:39.685Z,10.60
2022-11-27T16:12:06.917Z,10.60
2022-11-27T16:14:33.793Z,10.50
2022-11-27T16:17:01.360Z,10.50
2022-11-27T16:19:28.436Z,10.50
2022-11-27T16:21:55.221Z,10.50
2022-11-27T16:24:22.018Z,10.50
2022-11-27T16:26:48.808Z,10.50
2022-11-27T16:29:15.668Z,10.50
2022-11-27T16:31:42.526Z,10.50
2022-11-27T16:34:09.453Z,10.50
2022-11-27T16:36:36.271Z,10.40
2022-11-27T16:39:03.061Z,10.40
2022-11-27T16:41:29.781Z,10.40
2022-11-27T16:43:57.082Z,10.50
2022-11-27T16:46:28.452Z,10.40
2022-11-27T16:48:58.776Z,10.40
2022-11-27T16:51:29.306Z,10.40
2022-11-27T16:53:59.397Z,10.40
2022-11-27T16:56:29.131Z,10.30
2022-11-27T16:59:02.762Z,10.30
2022-11-27T17:01:37.009Z,10.30
2022-11-27T17:04:08.734Z,10.30
2022-11-27T17:06:38.279Z,10.20
2022-11-27T17:10:12.046Z,10.20
2022-11-27T17:12:38.857Z,10.10
2022-11-27T17:15:09.636Z,10.10
2022-11-27T17:17:40.220Z,10.00
2022-11-27T17:20:08.310Z,10.00
2022-11-27T17:22:35.060Z,10.00
2022-11-27T17:25:01.877Z,10.00
2022-11-27T17:27:28.573Z,10.00
2022-11-27T17:29:55.318Z,9.90
2022-11-27T17:32:22.204Z,9.90
2022-11-27T17:34:49.251Z,9.90
2022-11-27T17:37:16.084Z,9.90
2022-11-27T17:39:43.867Z,9.90
2022-11-27T17:42:13.883Z,9.90
2022-11-27T17:44:43.018Z,9.90
2022-11-27T17:47:10.131Z,9.80
2022-11-27T17:49:36.885Z,9.80
2022-11-27T17:52:06.479Z,9.80
2022-11-27T17:54:34.818Z,9.80
2022-11-27T17:57:01.963Z,9.80
2022-11-27T17:59:28.885Z,10.00
2022-11-27T18:01:55.809Z,9.70
2022-11-27T18:04:23.619Z,9.70
2022-11-27T18:06:51.307Z,9.70
2022-11-27T18:09:21.948Z,9.70
2022-11-27T18:11:57.340Z,9.70
2022-11-27T18:14:27.217Z,9.70
2022-11-27T18:16:54.369Z,9.80
2022-11-27T18:19:22.554Z,9.70
2022-11-27T18:21:49.451Z,9.60
2022-11-27T18:24:24.879Z,9.60
2022-11-27T18:27:09.904Z,9.50
2022-11-27T18:29:40.718Z,9.50
2022-11-27T18:32:08.721Z,9.80
2022-11-27T18:34:35.725Z,9.40
2022-11-27T18:37:03.334Z,9.40
2022-11-27T18:39:31.433Z,9.40
2022-11-27T18:41:58.480Z,9.40
2022-11-27T18:44:25.407Z,9.30
2022-11-27T18:46:52.718Z,9.40
2022-11-27T18:49:19.581Z,9.00
2022-11-27T18:51:46.371Z,9.30
2022-11-27T18:54:13.139Z,9.30
2022-11-27T18:56:39.966Z,9.30
2022-11-27T18:59:08.102Z,9.30
2022-11-27T19:01:42.040Z,9.30
2022-11-27T19:04:11.423Z,9.30
2022-11-27T19:06:42.034Z,9.30
2022-11-27T19:09:10.966Z,9.50
2022-11-27T19:11:39.008Z,9.30
2022-11-27T19:14:06.746Z,9.30
2022-11-27T19:16:44.210Z,9.30
2022-11-27T19:19:52.415Z,9.30
2022-11-27T19:22:00.766Z,9.30
2022-11-27T19:24:27.710Z,9.30
2022-11-27T19:26:54.559Z,9.30
2022-11-27T19:29:21.279Z,9.30
2022-11-27T19:31:48.038Z,9.30
2022-11-27T19:34:15.070Z,9.30
2022-11-27T19:36:42.013Z,9.30
2022-11-27T19:39:14.275Z,9.30
2022-11-27T19:41:43.151Z,9.30
2022-11-27T19:44:12.703Z,9.80
2022-11-27T19:46:41.037Z,9.30
2022-11-27T19:49:14.681Z,9.30
2022-11-27T19:51:41.618Z,9.40
2022-11-27T19:54:10.884Z,9.40
2022-11-27T19:56:39.760Z,9.40
2022-11-27T19:59:07.242Z,9.40
2022-11-27T20:01:34.263Z,9.40
2022-11-27T20:04:03.168Z,9.40
2022-11-27T20:06:30.240Z,9.40
2022-11-27T20:09:04.226Z,9.40
2022-11-27T20:11:35.537Z,9.40
2022-11-27T20:14:04.720Z,9.40
2022-11-27T20:16:32.977Z,9.40
2022-11-27T20:19:02.185Z,9.30
2022-11-27T20:21:29.253Z,9.30
2022-11-27T20:23:59.467Z,9.30
2022-11-27T20:26:29.064Z,9.30
2022-11-27T20:28:57.970Z,9.20
2022-11-27T20:31:29.416Z,9.20
2022-11-27T20:34:03.369Z,9.20
2022-11-27T20:36:33.578Z,9.20
2022-11-27T20:39:01.611Z,9.10
2022-11-27T20:41:29.873Z,9.40
2022-11-27T20:44:01.918Z,9.50
2022-11-27T20:46:29.152Z,9.10
2022-11-27T20:48:56.934Z,9.50
2022-11-27T20:51:28.715Z,9.10
2022-11-27T20:53:58.154Z,9.60
2022-11-27T20:56:26.168Z,9.00
2022-11-27T20:58:53.890Z,9.10
2022-11-27T21:01:29.620Z,9.40
2022-11-27T21:03:58.583Z,9.10
2022-11-27T21:06:29.540Z,9.10
2022-11-27T21:08:56.428Z,9.40
2022-11-27T21:11:30.879Z,9.40
2022-11-27T21:14:06.271Z,9.20
2022-11-27T21:16:37.427Z,9.30
2022-11-27T21:19:28.497Z,9.30
2022-11-27T21:21:56.494Z,9.30
2022-11-27T21:24:28.597Z,9.40
2022-11-27T21:26:55.709Z,9.40
2022-11-27T21:29:25.298Z,9.40
2022-11-27T21:31:52.993Z,9.50
2022-11-27T21:34:19.752Z,9.50
2022-11-27T21:36:46.587Z,9.50
2022-11-27T21:39:20.828Z,9.50
2022-11-27T21:41:53.995Z,9.60
2022-11-27T21:44:22.642Z,9.50
2022-11-27T21:46:50.705Z,9.60
2022-11-27T21:49:20.607Z,9.60
2022-11-27T21:51:52.503Z,9.60
2022-11-27T21:54:19.640Z,9.60
2022-11-27T21:56:49.842Z,9.60
2022-11-27T21:59:16.624Z,9.70
2022-11-27T22:01:45.360Z,9.70
2022-11-27T22:04:12.457Z,9.70
2022-11-27T22:06:42.674Z,9.70
2022-11-27T22:09:14.977Z,9.70
2022-11-27T22:11:42.891Z,9.70
2022-11-27T22:14:10.080Z,9.90
2022-11-27T22:16:44.720Z,9.80
2022-11-27T22:19:12.796Z,9.80
2022-11-27T22:21:39.619Z,9.70
2022-11-27T22:24:07.022Z,9.80
2022-11-27T22:26:33.854Z,9.70
2022-11-27T22:29:02.751Z,9.80
2022-11-27T22:31:35.314Z,9.80
2022-11-27T22:34:02.125Z,9.80
2022-11-27T22:36:34.698Z,9.70
2022-11-27T22:39:05.760Z,9.70
2022-11-27T22:41:36.668Z,9.70
2022-11-27T22:44:15.069Z,9.70
2022-11-27T22:46:42.739Z,9.80
2022-11-27T22:49:13.448Z,9.70
2022-11-27T22:51:40.638Z,9.70
2022-11-27T22:54:10.486Z,9.80
2022-11-27T22:56:37.557Z,9.70
2022-11-27T22:59:30.991Z,9.80
2022-11-27T23:01:53.275Z,9.80
2022-11-27T23:04:20.066Z,9.80
2022-11-27T23:06:48.457Z,9.80
2022-11-27T23:09:18.070Z,9.80
2022-11-27T23:11:45.379Z,9.80
2022-11-27T23:14:12.133Z,9.80
2022-11-27T23:16:39.350Z,9.90
2022-11-27T23:19:06.225Z,9.90
2022-11-27T23:21:37.190Z,9.90
2022-11-27T23:24:06.380Z,9.90
2022-11-27T23:26:33.710Z,9.90
2022-11-27T23:29:00.488Z,10.00
2022-11-27T23:31:34.118Z,10.00
2022-11-27T23:34:05.157Z,10.00
2022-11-27T23:36:32.585Z,10.00
2022-11-27T23:39:01.470Z,10.00
2022-11-27T23:41:29.070Z,10.00
2022-11-27T23:43:56.985Z,10.00
2022-11-27T23:46:28.467Z,10.00
2022-11-27T23:48:58.336Z,10.00
2022-11-27T23:51:29.762Z,10.10
2022-11-27T23:53:57.017Z,10.10
2022-11-27T23:56:28.123Z,10.10
2022-11-27T23:58:56.464Z,10.20
